createdAt,value
2022-08-19T00:02:03.637Z,21.00
2022-08-19T00:04:33.751Z,21.00
2022-08-19T00:07:01.273Z,21.00
2022-08-19T00:09:30.462Z,21.00
2022-08-19T00:11:58.771Z,21.00
2022-08-19T00:14:27.886Z,21.00
2022-08-19T00:16:55.691Z,21.00
2022-08-19T00:19:24.010Z,20.90
2022-08-19T00:21:51.079Z,20.80
2022-08-19T00:24:19.869Z,20.80
2022-08-19T00:26:46.886Z,20.70
2022-08-19T00:29:16.629Z,20.80
2022-08-19T00:31:44.847Z,20.70
2022-08-19T00:34:13.138Z,20.70
2022-08-19T00:36:41.193Z,20.60
2022-08-19T00:39:09.527Z,20.50
2022-08-19T00:41:36.652Z,20.50
2022-08-19T00:44:08.605Z,20.50
2022-08-19T00:46:37.609Z,20.40
2022-08-19T00:49:22.821Z,20.50
2022-08-19T00:51:57.445Z,20.40
2022-08-19T00:54:28.210Z,20.40
2022-08-19T00:57:00.281Z,20.30
2022-08-19T00:59:56.122Z,20.20
2022-08-19T01:02:17.853Z,20.30
2022-08-19T01:04:44.795Z,20.30
2022-08-19T01:07:16.690Z,20.30
2022-08-19T01:09:47.574Z,20.20
2022-08-19T01:12:14.870Z,20.20
2022-08-19T01:14:42.079Z,20.20
2022-08-19T01:17:10.856Z,20.10
2022-08-19T01:19:43.619Z,20.10
2022-08-19T01:22:16.817Z,20.00
2022-08-19T01:24:45.181Z,20.10
2022-08-19T01:27:17.748Z,20.00
2022-08-19T01:29:45.822Z,20.00
2022-08-19T01:32:32.513Z,20.10
2022-08-19T01:35:03.030Z,20.10
2022-08-19T01:37:31.407Z,20.00
2022-08-19T01:39:58.847Z,20.00
2022-08-19T01:42:30.136Z,20.00
2022-08-19T01:44:58.053Z,20.00
2022-08-19T01:47:25.270Z,20.10
2022-08-19T01:49:52.178Z,20.10
2022-08-19T01:52:18.967Z,20.00
2022-08-19T01:54:47.943Z,19.90
2022-08-19T01:57:15.651Z,20.00
2022-08-19T01:59:45.008Z,20.00
2022-08-19T02:02:12.082Z,20.00
2022-08-19T02:04:40.082Z,19.90
2022-08-19T02:07:08.928Z,19.80
2022-08-19T02:09:36.545Z,19.80
2022-08-19T02:12:04.667Z,19.80
2022-08-19T02:14:32.815Z,19.80
2022-08-19T02:17:00.719Z,19.90
2022-08-19T02:19:28.656Z,19.60
2022-08-19T02:21:55.547Z,19.60
2022-08-19T02:24:22.554Z,19.60
2022-08-19T02:26:49.469Z,19.60
2022-08-19T02:29:16.410Z,19.50
2022-08-19T02:31:43.518Z,19.50
2022-08-19T02:34:10.491Z,19.40
2022-08-19T02:36:37.419Z,19.50
2022-08-19T02:39:11.038Z,19.40
2022-08-19T02:41:39.363Z,19.40
2022-08-19T02:44:26.437Z,19.20
2022-08-19T02:46:57.270Z,19.30
2022-08-19T02:49:24.217Z,19.30
2022-08-19T02:51:52.973Z,19.30
2022-08-19T02:54:20.903Z,19.30
2022-08-19T02:56:50.918Z,19.20
2022-08-19T02:59:21.145Z,19.20
2022-08-19T03:01:50.109Z,19.20
2022-08-19T03:04:17.386Z,19.20
2022-08-19T03:06:46.983Z,19.20
2022-08-19T03:09:14.341Z,19.20
2022-08-19T03:11:41.651Z,19.20
2022-08-19T03:14:10.118Z,19.20
2022-08-19T03:16:45.559Z,19.20
2022-08-19T03:19:13.061Z,19.30
2022-08-19T03:21:40.038Z,19.10
2022-08-19T03:24:09.443Z,19.10
2022-08-19T03:26:41.289Z,19.10
2022-08-19T03:29:13.215Z,19.00
2022-08-19T03:31:51.998Z,19.00
2022-08-19T03:34:28.656Z,18.90
2022-08-19T03:36:57.844Z,18.60
2022-08-19T03:39:26.210Z,18.90
2022-08-19T03:42:32.524Z,18.70
2022-08-19T03:44:45.542Z,18.80
2022-08-19T03:47:17.663Z,18.80
2022-08-19T03:49:45.279Z,18.80
2022-08-19T03:52:12.376Z,18.80
2022-08-19T03:54:40.287Z,18.80
2022-08-19T03:57:10.687Z,18.70
2022-08-19T03:59:39.841Z,18.70
2022-08-19T04:02:11.413Z,18.90
2022-08-19T04:04:40.810Z,18.80
2022-08-19T04:07:08.105Z,18.80
2022-08-19T04:09:37.530Z,18.70
2022-08-19T04:12:06.417Z,18.60
2022-08-19T04:14:34.594Z,18.60
2022-08-19T04:17:04.279Z,18.60
2022-08-19T04:19:32.102Z,18.60
2022-08-19T04:22:00.382Z,18.50
2022-08-19T04:24:27.496Z,18.50
2022-08-19T04:26:54.366Z,18.40
2022-08-19T04:29:25.992Z,18.50
2022-08-19T04:31:55.120Z,18.50
2022-08-19T04:34:24.903Z,18.50
2022-08-19T04:36:53.850Z,18.40
2022-08-19T04:39:45.617Z,18.40
2022-08-19T04:42:31.787Z,18.40
2022-08-19T04:45:01.032Z,18.40
2022-08-19T04:47:49.133Z,18.40
2022-08-19T04:50:16.531Z,18.60
2022-08-19T04:52:46.079Z,18.40
2022-08-19T04:55:14.622Z,18.50
2022-08-19T04:57:43.826Z,18.30
2022-08-19T05:00:12.135Z,18.30
2022-08-19T05:02:40.299Z,18.40
2022-08-19T05:05:08.851Z,18.40
2022-08-19T05:07:42.014Z,18.40
2022-08-19T05:10:10.392Z,18.40
2022-08-19T05:12:37.738Z,18.40
2022-08-19T05:15:06.695Z,18.50
2022-08-19T05:17:38.642Z,18.40
2022-08-19T05:20:28.712Z,18.40
2022-08-19T05:23:20.551Z,18.40
2022-08-19T05:25:51.273Z,18.40
2022-08-19T05:28:19.440Z,18.50
2022-08-19T05:30:47.693Z,18.50
2022-08-19T05:33:26.989Z,18.60
2022-08-19T05:36:22.903Z,18.60
2022-08-19T05:38:50.903Z,18.60
2022-08-19T05:41:18.236Z,18.60
2022-08-19T05:43:45.090Z,18.70
2022-08-19T05:46:28.191Z,18.80
2022-08-19T05:48:57.521Z,19.00
2022-08-19T05:51:29.084Z,19.00
2022-08-19T05:53:56.481Z,19.00
2022-08-19T05:56:23.338Z,19.10
2022-08-19T05:58:50.238Z,19.20
2022-08-19T06:01:19.097Z,19.30
2022-08-19T06:03:46.740Z,19.40
2022-08-19T06:06:16.479Z,19.40
2022-08-19T06:08:43.987Z,19.50
2022-08-19T06:11:15.202Z,19.60
2022-08-19T06:13:42.219Z,19.70
2022-08-19T06:16:09.093Z,19.80
2022-08-19T06:18:38.435Z,20.00
2022-08-19T06:21:05.524Z,20.20
2022-08-19T06:23:57.599Z,20.30
2022-08-19T06:26:25.509Z,20.40
2022-08-19T06:28:52.321Z,20.40
2022-08-19T06:31:25.633Z,20.40
2022-08-19T06:33:53.301Z,20.60
2022-08-19T06:36:27.960Z,20.60
2022-08-19T06:38:55.353Z,20.60
2022-08-19T06:41:22.207Z,20.60
2022-08-19T06:43:49.767Z,20.60
2022-08-19T06:46:21.317Z,20.60
2022-08-19T06:48:49.706Z,20.60
2022-08-19T06:51:21.995Z,20.60
2022-08-19T06:53:52.396Z,20.70
2022-08-19T06:56:27.095Z,20.60
2022-08-19T06:58:54.817Z,20.70
2022-08-19T07:01:21.863Z,20.80
2022-08-19T07:03:48.842Z,20.90
2022-08-19T07:06:43.153Z,20.90
2022-08-19T07:09:09.817Z,21.00
2022-08-19T07:11:36.747Z,21.20
2022-08-19T07:14:04.210Z,21.30
2022-08-19T07:16:32.646Z,21.50
2022-08-19T07:19:00.327Z,21.80
2022-08-19T07:21:43.068Z,21.70
2022-08-19T07:24:10.999Z,21.70
2022-08-19T07:26:43.613Z,21.70
2022-08-19T07:29:11.270Z,21.70
2022-08-19T07:31:39.763Z,21.70
2022-08-19T07:34:09.164Z,21.70
2022-08-19T07:36:38.726Z,21.60
2022-08-19T07:39:13.740Z,21.60
2022-08-19T07:41:47.282Z,21.70
2022-08-19T07:44:15.094Z,21.80
2022-08-19T07:46:51.556Z,21.90
2022-08-19T07:49:21.079Z,22.10
2022-08-19T07:51:51.019Z,22.10
2022-08-19T07:54:19.175Z,22.20
2022-08-19T07:56:46.697Z,22.30
2022-08-19T07:59:13.737Z,22.30
2022-08-19T08:01:41.788Z,22.30
2022-08-19T08:04:27.500Z,22.30
2022-08-19T08:07:13.190Z,22.20
2022-08-19T08:09:44.341Z,22.20
2022-08-19T08:12:36.712Z,22.30
2022-08-19T08:15:12.537Z,22.40
2022-08-19T08:17:48.777Z,22.40
2022-08-19T08:20:18.829Z,22.40
2022-08-19T08:23:06.375Z,22.40
2022-08-19T08:25:34.407Z,22.50
2022-08-19T08:28:03.875Z,22.50
2022-08-19T08:30:34.431Z,22.60
2022-08-19T08:33:02.633Z,22.70
2022-08-19T08:35:29.850Z,22.70
2022-08-19T08:37:57.478Z,22.70
2022-08-19T08:40:39.288Z,22.90
2022-08-19T08:43:24.155Z,23.00
2022-08-19T08:46:14.554Z,23.10
2022-08-19T08:49:18.289Z,23.20
2022-08-19T08:51:59.818Z,23.30
2022-08-19T08:54:36.994Z,23.20
2022-08-19T08:57:07.663Z,23.00
2022-08-19T08:59:39.594Z,22.80
2022-08-19T09:02:06.487Z,22.70
2022-08-19T09:04:35.978Z,22.60
2022-08-19T09:07:48.465Z,22.70
2022-08-19T09:10:25.866Z,22.80
2022-08-19T09:13:12.009Z,22.70
2022-08-19T09:15:48.962Z,22.80
2022-08-19T09:18:19.131Z,22.80
2022-08-19T09:20:48.412Z,22.70
2022-08-19T09:23:15.334Z,23.00
2022-08-19T09:25:42.867Z,22.90
2022-08-19T09:28:12.684Z,22.90
2022-08-19T09:30:49.250Z,22.70
2022-08-19T09:33:16.978Z,22.90
2022-08-19T09:35:52.942Z,22.70
2022-08-19T09:38:21.790Z,22.80
2022-08-19T09:40:48.906Z,22.90
2022-08-19T09:43:15.703Z,22.90
2022-08-19T09:46:01.174Z,22.90
2022-08-19T09:48:28.346Z,22.90
2022-08-19T09:50:55.332Z,23.00
2022-08-19T09:53:25.622Z,23.00
2022-08-19T09:55:53.075Z,23.20
2022-08-19T09:58:22.337Z,23.30
2022-08-19T10:00:54.762Z,23.30
2022-08-19T10:03:21.919Z,23.30
2022-08-19T10:05:55.475Z,23.40
2022-08-19T10:08:29.423Z,23.40
2022-08-19T10:10:59.071Z,23.40
2022-08-19T10:13:28.997Z,23.50
2022-08-19T10:16:02.692Z,23.50
2022-08-19T10:18:30.527Z,23.80
2022-08-19T10:21:09.495Z,23.60
2022-08-19T10:23:41.054Z,23.70
2022-08-19T10:26:08.745Z,23.70
2022-08-19T10:28:39.784Z,23.80
2022-08-19T10:31:13.506Z,23.90
2022-08-19T10:33:53.989Z,23.90
2022-08-19T10:36:23.595Z,24.00
2022-08-19T10:38:56.639Z,24.00
2022-08-19T10:41:32.912Z,24.20
2022-08-19T10:44:04.460Z,23.90
2022-08-19T10:46:33.555Z,24.00
2022-08-19T10:49:02.395Z,24.00
2022-08-19T10:51:48.791Z,24.00
2022-08-19T10:54:17.166Z,23.90
2022-08-19T10:57:00.152Z,23.90
2022-08-19T10:59:33.831Z,24.00
2022-08-19T11:02:06.823Z,24.00
2022-08-19T11:04:40.807Z,24.00
2022-08-19T11:07:08.862Z,24.00
2022-08-19T11:09:42.793Z,24.00
2022-08-19T11:12:11.078Z,24.20
2022-08-19T11:14:39.127Z,24.30
2022-08-19T11:17:06.620Z,24.50
2022-08-19T11:19:34.402Z,24.70
2022-08-19T11:22:03.790Z,24.70
2022-08-19T11:24:31.946Z,24.70
2022-08-19T11:27:06.997Z,24.70
2022-08-19T11:29:35.345Z,24.60
2022-08-19T11:32:06.433Z,24.60
2022-08-19T11:34:34.010Z,24.50
2022-08-19T11:37:01.282Z,24.70
2022-08-19T11:39:31.226Z,25.00
2022-08-19T11:42:04.255Z,25.40
2022-08-19T11:44:31.487Z,25.80
2022-08-19T11:46:58.656Z,26.10
2022-08-19T11:49:37.092Z,26.30
2022-08-19T11:52:04.195Z,26.50
2022-08-19T11:54:31.778Z,26.50
2022-08-19T11:56:58.944Z,26.60
2022-08-19T11:59:27.764Z,26.60
2022-08-19T12:01:56.611Z,26.60
2022-08-19T12:04:24.305Z,26.40
2022-08-19T12:06:52.323Z,26.30
2022-08-19T12:09:30.987Z,26.10
2022-08-19T12:11:58.948Z,26.50
2022-08-19T12:14:26.251Z,26.60
2022-08-19T12:16:53.296Z,26.70
2022-08-19T12:19:22.194Z,26.80
2022-08-19T12:21:50.326Z,26.80
2022-08-19T12:24:21.440Z,26.80
2022-08-19T12:26:53.024Z,26.80
2022-08-19T12:29:23.716Z,27.00
2022-08-19T12:31:51.707Z,27.30
2022-08-19T12:34:20.649Z,27.50
2022-08-19T12:36:50.896Z,27.60
2022-08-19T12:39:17.945Z,27.70
2022-08-19T12:41:51.687Z,27.60
2022-08-19T12:44:29.194Z,27.40
2022-08-19T12:46:57.755Z,27.20
2022-08-19T12:49:53.214Z,27.10
2022-08-19T12:52:16.075Z,27.10
2022-08-19T12:54:44.125Z,27.20
2022-08-19T12:57:11.742Z,26.90
2022-08-19T12:59:39.430Z,26.80
2022-08-19T13:02:08.094Z,26.70
2022-08-19T13:04:41.618Z,26.80
2022-08-19T13:07:09.944Z,26.70
2022-08-19T13:09:37.294Z,26.60
2022-08-19T13:12:08.077Z,26.60
2022-08-19T13:14:36.205Z,26.40
2022-08-19T13:17:03.854Z,26.40
2022-08-19T13:19:31.906Z,26.40
2022-08-19T13:22:00.398Z,26.40
2022-08-19T13:24:31.359Z,26.40
2022-08-19T13:27:01.595Z,26.90
2022-08-19T13:29:46.994Z,26.90
2022-08-19T13:32:33.493Z,27.10
2022-08-19T13:35:00.390Z,27.30
2022-08-19T13:37:42.402Z,27.60
2022-08-19T13:40:23.633Z,28.10
2022-08-19T13:42:54.687Z,29.00
2022-08-19T13:45:25.176Z,29.70
2022-08-19T13:47:58.986Z,30.80
2022-08-19T13:50:29.177Z,31.80
2022-08-19T13:52:57.243Z,32.70
2022-08-19T13:55:25.354Z,32.80
2022-08-19T13:57:57.133Z,32.10
2022-08-19T14:00:27.467Z,31.40
2022-08-19T14:02:56.622Z,30.90
2022-08-19T14:05:25.538Z,30.40
2022-08-19T14:07:52.670Z,29.90
2022-08-19T14:10:20.918Z,29.50
2022-08-19T14:12:48.410Z,29.40
2022-08-19T14:15:16.387Z,29.40
2022-08-19T14:17:45.464Z,29.20
2022-08-19T14:20:17.523Z,28.90
2022-08-19T14:22:47.280Z,28.60
2022-08-19T14:25:21.887Z,28.20
2022-08-19T14:27:49.553Z,28.10
2022-08-19T14:30:23.476Z,28.00
2022-08-19T14:32:50.611Z,27.70
2022-08-19T14:35:17.555Z,27.40
2022-08-19T14:37:46.189Z,27.20
2022-08-19T14:40:15.771Z,26.90
2022-08-19T14:42:43.729Z,26.60
2022-08-19T14:45:12.922Z,26.30
2022-08-19T14:47:40.778Z,26.00
2022-08-19T14:50:18.158Z,25.50
2022-08-19T14:52:48.947Z,25.30
2022-08-19T14:55:18.189Z,24.90
2022-08-19T14:57:46.169Z,24.60
2022-08-19T15:00:14.284Z,24.30
2022-08-19T15:02:42.509Z,24.10
2022-08-19T15:05:09.878Z,23.90
2022-08-19T15:07:37.717Z,23.80
2022-08-19T15:10:07.873Z,23.50
2022-08-19T15:12:41.110Z,23.40
2022-08-19T15:15:13.458Z,23.30
2022-08-19T15:17:45.556Z,23.30
2022-08-19T15:20:20.088Z,23.40
2022-08-19T15:22:47.827Z,23.50
2022-08-19T15:25:19.508Z,23.70
2022-08-19T15:27:46.785Z,24.00
2022-08-19T15:30:23.331Z,24.40
2022-08-19T15:32:50.787Z,24.70
2022-08-19T15:35:19.612Z,25.40
2022-08-19T15:37:49.922Z,26.30
2022-08-19T15:40:16.973Z,26.60
2022-08-19T15:42:47.943Z,26.70
2022-08-19T15:45:16.131Z,26.70
2022-08-19T15:47:43.750Z,26.60
2022-08-19T15:50:17.398Z,26.90
2022-08-19T15:52:50.427Z,27.20
2022-08-19T15:55:33.772Z,27.40
2022-08-19T15:58:28.606Z,28.10
2022-08-19T16:01:18.816Z,28.70
2022-08-19T16:04:11.099Z,28.70
2022-08-19T16:06:51.958Z,28.10
2022-08-19T16:09:27.040Z,27.40
2022-08-19T16:11:59.679Z,27.10
2022-08-19T16:14:31.887Z,26.70
2022-08-19T16:16:59.512Z,26.50
2022-08-19T16:19:27.282Z,26.10
2022-08-19T16:21:56.114Z,26.00
2022-08-19T16:24:25.765Z,25.70
2022-08-19T16:26:52.777Z,25.50
2022-08-19T16:29:22.108Z,25.30
2022-08-19T16:32:02.783Z,25.30
2022-08-19T16:34:30.633Z,25.20
2022-08-19T16:36:57.686Z,25.20
2022-08-19T16:39:25.008Z,25.30
2022-08-19T16:41:51.961Z,25.30
2022-08-19T16:44:21.015Z,25.40
2022-08-19T16:46:58.289Z,25.50
2022-08-19T16:49:53.438Z,25.60
2022-08-19T16:52:14.767Z,25.40
2022-08-19T16:54:43.627Z,25.30
2022-08-19T16:57:12.318Z,25.20
2022-08-19T16:59:43.825Z,25.00
2022-08-19T17:02:23.616Z,24.80
2022-08-19T17:04:58.195Z,24.50
2022-08-19T17:07:27.504Z,24.40
2022-08-19T17:09:55.286Z,24.20
2022-08-19T17:12:30.533Z,24.00
2022-08-19T17:15:01.441Z,23.80
2022-08-19T17:17:31.654Z,23.70
2022-08-19T17:20:00.677Z,23.60
2022-08-19T17:22:28.052Z,23.50
2022-08-19T17:24:56.299Z,23.50
2022-08-19T17:27:26.147Z,23.40
2022-08-19T17:29:53.311Z,23.50
2022-08-19T17:32:25.079Z,23.40
2022-08-19T17:34:54.099Z,23.40
2022-08-19T17:37:21.979Z,23.30
2022-08-19T17:39:49.174Z,23.30
2022-08-19T17:42:16.285Z,23.30
2022-08-19T17:44:44.883Z,23.20
2022-08-19T17:47:17.867Z,23.40
2022-08-19T17:49:44.641Z,23.30
2022-08-19T17:52:11.828Z,23.50
2022-08-19T17:54:38.820Z,23.30
2022-08-19T17:57:05.773Z,23.40
2022-08-19T17:59:33.268Z,23.30
2022-08-19T18:02:00.321Z,23.30
2022-08-19T18:04:29.336Z,23.20
2022-08-19T18:06:57.091Z,23.20
2022-08-19T18:09:38.664Z,23.10
2022-08-19T18:12:12.734Z,23.20
2022-08-19T18:14:41.158Z,23.20
2022-08-19T18:17:11.203Z,23.10
2022-08-19T18:19:42.718Z,23.10
2022-08-19T18:22:13.063Z,23.10
2022-08-19T18:24:41.814Z,23.10
2022-08-19T18:27:09.815Z,23.00
2022-08-19T18:29:38.460Z,23.20
2022-08-19T18:32:07.096Z,23.00
2022-08-19T18:34:36.716Z,22.90
2022-08-19T18:37:03.617Z,22.90
2022-08-19T18:39:49.313Z,22.90
2022-08-19T18:42:36.473Z,22.90
2022-08-19T18:45:23.773Z,22.80
2022-08-19T18:48:10.763Z,22.70
2022-08-19T18:50:53.658Z,22.60
2022-08-19T18:53:20.635Z,22.60
2022-08-19T18:55:49.380Z,22.60
2022-08-19T18:58:16.177Z,22.50
2022-08-19T19:00:44.123Z,22.50
2022-08-19T19:03:11.645Z,22.50
2022-08-19T19:05:39.887Z,22.40
2022-08-19T19:08:07.656Z,22.50
2022-08-19T19:10:36.220Z,22.50
2022-08-19T19:13:03.481Z,22.50
2022-08-19T19:15:30.993Z,22.40
2022-08-19T19:18:01.148Z,22.40
2022-08-19T19:20:36.163Z,22.40
2022-08-19T19:23:04.141Z,22.40
2022-08-19T19:25:49.820Z,22.40
2022-08-19T19:28:27.718Z,22.40
2022-08-19T19:30:58.578Z,22.40
2022-08-19T19:33:27.573Z,22.40
2022-08-19T19:35:54.395Z,22.30
2022-08-19T19:38:21.292Z,22.30
2022-08-19T19:40:48.077Z,22.30
2022-08-19T19:43:17.322Z,22.30
2022-08-19T19:45:44.548Z,22.30
2022-08-19T19:48:13.625Z,22.30
2022-08-19T19:50:42.478Z,22.20
2022-08-19T19:53:10.011Z,22.20
2022-08-19T19:55:37.134Z,22.10
2022-08-19T19:58:15.506Z,21.90
2022-08-19T20:00:42.872Z,21.90
2022-08-19T20:03:11.231Z,21.80
2022-08-19T20:05:38.073Z,21.80
2022-08-19T20:08:23.755Z,21.80
2022-08-19T20:10:50.764Z,21.80
2022-08-19T20:13:17.704Z,21.90
2022-08-19T20:15:45.597Z,21.80
2022-08-19T20:18:14.666Z,21.80
2022-08-19T20:20:42.548Z,21.90
2022-08-19T20:23:09.448Z,21.90
2022-08-19T20:25:38.519Z,21.90
2022-08-19T20:28:05.749Z,21.90
2022-08-19T20:30:33.293Z,21.90
2022-08-19T20:33:04.609Z,21.90
2022-08-19T20:35:31.582Z,21.90
2022-08-19T20:38:03.571Z,21.90
2022-08-19T20:40:30.850Z,21.90
2022-08-19T20:42:57.952Z,21.90
2022-08-19T20:45:32.784Z,21.90
2022-08-19T20:48:02.330Z,22.00
2022-08-19T20:50:30.110Z,22.00
2022-08-19T20:52:57.851Z,22.00
2022-08-19T20:55:26.390Z,21.70
2022-08-19T20:57:53.487Z,21.60
2022-08-19T21:00:20.763Z,21.60
2022-08-19T21:02:47.879Z,21.50
2022-08-19T21:05:14.919Z,21.40
2022-08-19T21:07:42.156Z,21.30
2022-08-19T21:10:09.446Z,21.40
2022-08-19T21:12:36.772Z,21.30
2022-08-19T21:15:04.896Z,21.30
2022-08-19T21:17:31.745Z,21.30
2022-08-19T21:19:59.164Z,21.30
2022-08-19T21:22:26.241Z,21.40
2022-08-19T21:24:53.022Z,21.40
2022-08-19T21:27:19.817Z,21.40
2022-08-19T21:29:46.845Z,21.40
2022-08-19T21:32:13.983Z,21.40
2022-08-19T21:34:46.260Z,21.40
2022-08-19T21:37:25.064Z,21.40
2022-08-19T21:39:54.400Z,21.30
2022-08-19T21:42:23.087Z,21.30
2022-08-19T21:44:50.818Z,21.30
2022-08-19T21:47:18.045Z,21.20
2022-08-19T21:49:44.994Z,21.40
2022-08-19T21:52:13.222Z,21.20
2022-08-19T21:54:40.138Z,21.20
2022-08-19T21:57:10.335Z,21.20
2022-08-19T21:59:43.524Z,21.20
2022-08-19T22:02:20.288Z,21.00
2022-08-19T22:04:52.785Z,21.00
2022-08-19T22:07:21.113Z,20.90
2022-08-19T22:09:50.327Z,20.80
2022-08-19T22:12:39.216Z,20.70
2022-08-19T22:15:15.901Z,20.70
2022-08-19T22:17:45.560Z,20.60
2022-08-19T22:20:15.458Z,20.60
2022-08-19T22:22:51.930Z,20.60
2022-08-19T22:25:30.075Z,20.60
2022-08-19T22:28:04.045Z,20.50
2022-08-19T22:30:33.282Z,20.50
2022-08-19T22:33:04.134Z,20.50
2022-08-19T22:35:33.550Z,20.40
2022-08-19T22:38:02.156Z,20.40
2022-08-19T22:40:30.564Z,20.40
2022-08-19T22:43:06.653Z,20.40
2022-08-19T22:45:36.257Z,20.40
2022-08-19T22:48:07.845Z,20.40
2022-08-19T22:50:37.210Z,20.50
2022-08-19T22:53:08.073Z,20.60
2022-08-19T22:55:36.612Z,20.60
2022-08-19T22:58:04.970Z,20.70
2022-08-19T23:00:32.770Z,20.70
2022-08-19T23:03:01.516Z,20.70
2022-08-19T23:05:29.672Z,20.70
2022-08-19T23:07:58.516Z,20.70
2022-08-19T23:10:28.986Z,20.70
2022-08-19T23:12:58.291Z,20.60
2022-08-19T23:15:30.293Z,20.70
2022-08-19T23:17:59.923Z,20.60
2022-08-19T23:20:30.265Z,20.60
2022-08-19T23:22:57.762Z,20.60
2022-08-19T23:25:27.662Z,20.60
2022-08-19T23:28:13.062Z,20.40
2022-08-19T23:30:44.422Z,20.30
2022-08-19T23:33:26.343Z,20.30
2022-08-19T23:36:16.012Z,20.30
2022-08-19T23:38:44.595Z,20.30
2022-08-19T23:41:13.058Z,20.30
2022-08-19T23:43:41.831Z,20.20
2022-08-19T23:46:11.366Z,20.10
2022-08-19T23:48:41.566Z,20.00
2022-08-19T23:51:10.553Z,20.00
2022-08-19T23:53:39.954Z,19.90
2022-08-19T23:56:08.214Z,19.80
2022-08-19T23:58:36.987Z,19.80
